createdAt,value
2023-04-18T00:00:35.100Z,19.38
2023-04-18T00:03:04.697Z,22.55
2023-04-18T00:05:33.527Z,19.77
2023-04-18T00:08:01.905Z,21.92
2023-04-18T00:10:30.289Z,19.90
2023-04-18T00:13:00.415Z,21.90
2023-04-18T00:15:30.403Z,19.35
2023-04-18T00:18:00.740Z,22.38
2023-04-18T00:20:29.258Z,19.92
2023-04-18T00:22:57.927Z,22.65
2023-04-18T00:25:26.462Z,20.88
2023-04-18T00:27:55.003Z,24.92
2023-04-18T00:30:23.694Z,19.88
2023-04-18T00:32:53.479Z,21.88
2023-04-18T00:35:22.050Z,23.63
2023-04-18T00:37:50.920Z,21.95
2023-04-18T00:40:19.609Z,25.92
2023-04-18T00:42:48.046Z,23.05
2023-04-18T00:45:16.466Z,22.45
2023-04-18T00:47:45.102Z,21.35
2023-04-18T00:50:16.161Z,25.90
2023-04-18T00:52:45.143Z,22.55
2023-04-18T00:55:13.570Z,19.95
2023-04-18T00:57:43.116Z,21.67
2023-04-18T01:00:12.656Z,23.55
2023-04-18T01:02:42.358Z,23.80
2023-04-18T01:05:13.315Z,23.85
2023-04-18T01:07:44.083Z,20.75
2023-04-18T01:10:12.618Z,22.30
2023-04-18T01:12:42.062Z,24.20
2023-04-18T01:15:11.794Z,22.85
2023-04-18T01:17:40.736Z,22.73
2023-04-18T01:20:10.577Z,25.92
2023-04-18T01:22:39.263Z,23.25
2023-04-18T01:25:12.327Z,24.40
2023-04-18T01:27:40.936Z,24.13
2023-04-18T01:30:10.778Z,24.75
2023-04-18T01:32:39.216Z,27.50
2023-04-18T01:35:09.053Z,27.88
2023-04-18T01:37:37.614Z,28.63
2023-04-18T01:40:07.118Z,24.63
2023-04-18T01:42:36.944Z,23.30
2023-04-18T01:45:07.462Z,22.08
2023-04-18T01:47:36.060Z,23.45
2023-04-18T01:50:05.307Z,24.75
2023-04-18T01:52:33.790Z,25.77
2023-04-18T01:55:03.849Z,28.42
2023-04-18T01:57:33.128Z,23.02
2023-04-18T02:00:04.584Z,26.15
2023-04-18T02:02:43.401Z,27.48
2023-04-18T02:05:12.188Z,24.13
2023-04-18T02:07:42.720Z,25.77
2023-04-18T02:10:12.186Z,27.17
2023-04-18T02:12:40.790Z,25.40
2023-04-18T02:15:11.909Z,24.83
2023-04-18T02:17:41.636Z,26.10
2023-04-18T02:20:11.290Z,26.77
2023-04-18T02:22:40.055Z,23.85
2023-04-18T02:25:09.080Z,25.20
2023-04-18T02:27:38.374Z,28.02
2023-04-18T02:30:08.380Z,28.75
2023-04-18T02:32:38.271Z,26.88
2023-04-18T02:35:07.476Z,29.48
2023-04-18T02:37:35.875Z,26.25
2023-04-18T02:40:05.607Z,27.27
2023-04-18T02:42:34.097Z,27.83
2023-04-18T02:45:03.560Z,25.83
2023-04-18T02:47:40.535Z,24.98
2023-04-18T02:50:20.158Z,26.75
2023-04-18T02:52:48.716Z,24.67
2023-04-18T02:55:19.215Z,25.42
2023-04-18T02:57:48.321Z,26.60
2023-04-18T03:00:42.599Z,23.55
2023-04-18T03:03:33.749Z,26.33
2023-04-18T03:06:22.050Z,24.08
2023-04-18T03:08:50.627Z,21.52
2023-04-18T03:11:19.333Z,24.92
2023-04-18T03:13:48.116Z,29.88
2023-04-18T03:16:16.951Z,23.17
2023-04-18T03:18:45.871Z,24.33
2023-04-18T03:21:14.971Z,24.35
2023-04-18T03:23:45.237Z,22.13
2023-04-18T03:26:14.125Z,24.95
2023-04-18T03:28:44.138Z,24.65
2023-04-18T03:31:12.972Z,22.55
2023-04-18T03:33:45.630Z,21.70
2023-04-18T03:36:17.289Z,22.17
2023-04-18T03:38:47.402Z,23.65
2023-04-18T03:41:15.883Z,22.73
2023-04-18T03:43:44.339Z,23.27
2023-04-18T03:46:13.583Z,22.70
2023-04-18T03:48:42.272Z,23.23
2023-04-18T03:51:13.406Z,21.38
2023-04-18T03:53:42.672Z,21.10
2023-04-18T03:56:12.701Z,21.48
2023-04-18T03:58:50.091Z,23.05
2023-04-18T04:01:20.312Z,22.50
2023-04-18T04:03:49.129Z,20.20
2023-04-18T04:06:18.801Z,22.33
2023-04-18T04:08:47.449Z,19.73
2023-04-18T04:11:24.587Z,18.50
2023-04-18T04:13:53.314Z,20.85
2023-04-18T04:16:26.111Z,19.17
2023-04-18T04:18:56.727Z,24.40
2023-04-18T04:21:32.290Z,20.58
2023-04-18T04:24:01.312Z,22.45
2023-04-18T04:26:40.023Z,18.63
2023-04-18T04:29:15.162Z,20.35
2023-04-18T04:31:45.885Z,20.77
2023-04-18T04:34:18.113Z,22.23
2023-04-18T04:36:47.900Z,20.25
2023-04-18T04:39:17.366Z,20.20
2023-04-18T04:42:19.773Z,20.40
2023-04-18T04:45:04.122Z,21.20
2023-04-18T04:47:32.973Z,23.05
2023-04-18T04:50:01.485Z,18.70
2023-04-18T04:52:29.947Z,25.40
2023-04-18T04:54:58.451Z,22.50
2023-04-18T04:57:29.354Z,19.58
2023-04-18T04:59:57.807Z,22.98
2023-04-18T05:02:26.620Z,20.15
2023-04-18T05:04:55.372Z,21.77
2023-04-18T05:07:23.832Z,23.70
2023-04-18T05:09:53.169Z,23.17
2023-04-18T05:12:21.703Z,19.73
2023-04-18T05:14:51.508Z,22.52
2023-04-18T05:17:20.173Z,20.98
2023-04-18T05:19:48.700Z,20.75
2023-04-18T05:22:17.151Z,22.75
2023-04-18T05:24:46.831Z,21.33
2023-04-18T05:27:17.211Z,24.15
2023-04-18T05:29:47.716Z,22.67
2023-04-18T05:32:18.098Z,20.70
2023-04-18T05:34:46.844Z,23.67
2023-04-18T05:37:15.292Z,22.17
2023-04-18T05:39:43.820Z,24.83
2023-04-18T05:42:12.204Z,25.88
2023-04-18T05:44:40.623Z,32.05
2023-04-18T05:47:09.008Z,25.70
2023-04-18T05:49:38.692Z,23.33
2023-04-18T05:52:06.999Z,24.48
2023-04-18T05:54:35.730Z,24.98
2023-04-18T05:57:04.683Z,25.15
2023-04-18T05:59:33.280Z,21.77
2023-04-18T06:02:01.844Z,27.02
2023-04-18T06:04:30.440Z,25.70
2023-04-18T06:07:00.250Z,19.95
2023-04-18T06:09:28.687Z,24.48
2023-04-18T06:11:57.758Z,24.35
2023-04-18T06:14:26.586Z,19.15
2023-04-18T06:16:55.272Z,17.83
2023-04-18T06:19:23.604Z,18.73
2023-04-18T06:21:51.969Z,16.90
2023-04-18T06:24:21.774Z,16.23
2023-04-18T06:26:50.309Z,14.85
2023-04-18T06:29:18.951Z,18.30
2023-04-18T06:31:48.364Z,16.05
2023-04-18T06:34:17.441Z,17.25
2023-04-18T06:36:45.785Z,16.73
2023-04-18T06:39:14.162Z,18.38
2023-04-18T06:41:43.915Z,14.20
2023-04-18T06:44:12.345Z,14.77
2023-04-18T06:46:40.705Z,15.75
2023-04-18T06:49:09.129Z,16.33
2023-04-18T06:51:37.482Z,17.85
2023-04-18T06:54:05.947Z,13.70
2023-04-18T06:56:36.338Z,15.07
2023-04-18T06:59:06.434Z,14.88
2023-04-18T07:01:34.877Z,12.40
2023-04-18T07:04:03.340Z,13.02
2023-04-18T07:06:31.828Z,14.13
2023-04-18T07:09:01.468Z,14.45
2023-04-18T07:11:29.933Z,13.70
2023-04-18T07:13:58.326Z,13.40
2023-04-18T07:16:28.119Z,16.75
2023-04-18T07:18:56.723Z,20.50
2023-04-18T07:21:25.539Z,13.60
2023-04-18T07:23:53.952Z,13.50
2023-04-18T07:26:22.567Z,16.10
2023-04-18T07:28:50.928Z,14.88
2023-04-18T07:31:19.381Z,14.40
2023-04-18T07:33:49.230Z,15.43
2023-04-18T07:36:18.064Z,13.10
2023-04-18T07:38:46.681Z,12.75
2023-04-18T07:41:15.007Z,12.90
2023-04-18T07:43:45.135Z,12.65
2023-04-18T07:46:13.555Z,13.23
2023-04-18T07:48:42.293Z,11.63
2023-04-18T07:51:12.456Z,16.77
2023-04-18T07:53:43.310Z,13.75
2023-04-18T07:56:12.660Z,12.20
2023-04-18T07:58:41.035Z,12.57
2023-04-18T08:01:13.383Z,11.25
2023-04-18T08:03:42.038Z,11.45
2023-04-18T08:06:12.267Z,10.60
2023-04-18T08:08:40.599Z,13.48
2023-04-18T08:11:09.034Z,11.82
2023-04-18T08:13:37.460Z,13.55
2023-04-18T08:16:06.150Z,13.00
2023-04-18T08:18:34.514Z,12.00
2023-04-18T08:21:02.890Z,16.23
2023-04-18T08:23:32.602Z,12.63
2023-04-18T08:26:01.051Z,13.63
2023-04-18T08:28:29.387Z,12.63
2023-04-18T08:30:57.814Z,13.73
2023-04-18T08:33:26.302Z,12.98
2023-04-18T08:35:54.847Z,15.32
2023-04-18T08:38:23.235Z,10.63
2023-04-18T08:40:52.944Z,12.30
2023-04-18T08:43:21.337Z,13.77
2023-04-18T08:45:50.404Z,13.18
2023-04-18T08:48:19.704Z,16.30
2023-04-18T08:50:48.056Z,20.92
2023-04-18T08:53:17.708Z,12.77
2023-04-18T08:55:47.610Z,13.68
2023-04-18T08:58:22.231Z,13.32
2023-04-18T09:00:52.014Z,14.27
2023-04-18T09:03:37.274Z,10.55
2023-04-18T09:06:12.315Z,12.52
2023-04-18T09:08:43.482Z,14.05
2023-04-18T09:11:25.931Z,12.77
2023-04-18T09:13:58.654Z,16.10
2023-04-18T09:16:28.232Z,20.80
2023-04-18T09:19:11.716Z,35.15
2023-04-18T09:21:41.875Z,13.38
2023-04-18T09:24:23.547Z,11.23
2023-04-18T09:26:58.805Z,11.70
2023-04-18T09:29:46.636Z,12.60
2023-04-18T09:32:24.955Z,13.02
2023-04-18T09:34:57.865Z,12.98
2023-04-18T09:37:27.192Z,11.32
2023-04-18T09:39:56.076Z,13.30
2023-04-18T09:42:26.698Z,14.98
2023-04-18T09:45:03.669Z,14.50
2023-04-18T09:47:36.829Z,31.70
2023-04-18T09:50:06.274Z,11.75
2023-04-18T09:52:36.830Z,9.07
2023-04-18T09:55:06.669Z,8.95
2023-04-18T09:57:36.523Z,9.27
2023-04-18T10:00:19.749Z,11.02
2023-04-18T10:02:53.407Z,9.98
2023-04-18T10:05:26.777Z,8.82
2023-04-18T10:07:55.780Z,8.00
2023-04-18T10:10:24.877Z,7.85
2023-04-18T10:12:56.084Z,11.07
2023-04-18T10:15:28.594Z,8.52
2023-04-18T10:18:04.431Z,8.20
2023-04-18T10:20:35.746Z,8.63
2023-04-18T10:23:35.594Z,8.93
2023-04-18T10:26:05.066Z,7.47
2023-04-18T10:28:53.135Z,7.43
2023-04-18T10:31:24.432Z,8.20
2023-04-18T10:34:04.042Z,8.48
2023-04-18T10:36:34.010Z,8.90
2023-04-18T10:39:04.595Z,7.82
2023-04-18T10:41:34.540Z,7.22
2023-04-18T10:44:18.210Z,8.82
2023-04-18T10:47:31.730Z,9.43
2023-04-18T10:50:06.981Z,8.73
2023-04-18T10:55:20.248Z,8.57
2023-04-18T10:57:50.430Z,8.85
2023-04-18T11:00:21.428Z,9.55
2023-04-18T11:02:52.783Z,8.60
2023-04-18T11:05:24.915Z,8.82
2023-04-18T11:07:54.179Z,8.63
2023-04-18T11:10:25.379Z,9.77
2023-04-18T11:12:54.635Z,8.23
2023-04-18T11:15:25.454Z,6.78
2023-04-18T11:17:59.448Z,24.85
2023-04-18T11:20:29.915Z,6.93
2023-04-18T11:22:59.719Z,6.65
2023-04-18T11:25:30.251Z,7.95
2023-04-18T11:28:00.638Z,8.18
2023-04-18T11:30:31.322Z,8.70
2023-04-18T11:32:59.976Z,9.25
2023-04-18T11:35:30.526Z,7.50
2023-04-18T11:37:59.257Z,7.75
2023-04-18T11:40:27.821Z,8.60
2023-04-18T11:42:56.670Z,9.18
2023-04-18T11:45:25.217Z,8.45
2023-04-18T11:47:56.983Z,10.32
2023-04-18T11:50:26.799Z,8.57
2023-04-18T11:52:57.654Z,7.43
2023-04-18T11:55:27.247Z,9.20
2023-04-18T11:57:57.055Z,8.98
2023-04-18T12:00:34.135Z,9.50
2023-04-18T12:03:04.813Z,9.45
2023-04-18T12:05:35.882Z,9.20
2023-04-18T12:08:11.744Z,10.07
2023-04-18T12:10:47.283Z,25.35
2023-04-18T12:13:15.870Z,8.05
2023-04-18T12:15:45.751Z,7.70
2023-04-18T12:18:15.712Z,8.35
2023-04-18T12:20:50.257Z,7.90
2023-04-18T12:23:34.320Z,8.38
2023-04-18T12:26:04.152Z,7.15
2023-04-18T12:28:34.364Z,9.55
2023-04-18T12:31:05.508Z,9.10
2023-04-18T12:33:35.829Z,8.13
2023-04-18T12:36:05.647Z,9.32
2023-04-18T12:38:36.513Z,9.35
2023-04-18T12:41:05.415Z,8.60
2023-04-18T12:43:34.014Z,7.97
2023-04-18T12:46:04.108Z,10.80
2023-04-18T12:48:33.287Z,10.30
2023-04-18T12:51:01.748Z,10.82
2023-04-18T12:53:30.477Z,10.15
2023-04-18T12:56:00.411Z,8.40
2023-04-18T12:58:28.947Z,12.23
2023-04-18T13:00:57.706Z,10.90
2023-04-18T13:03:26.633Z,10.50
2023-04-18T13:05:55.473Z,9.40
2023-04-18T13:08:24.046Z,10.52
2023-04-18T13:10:52.849Z,10.38
2023-04-18T13:13:22.670Z,9.75
2023-04-18T13:15:52.229Z,11.60
2023-04-18T13:18:20.904Z,8.93
2023-04-18T13:20:50.301Z,8.70
2023-04-18T13:23:18.967Z,9.77
2023-04-18T13:25:47.563Z,9.30
2023-04-18T13:28:16.063Z,11.20
2023-04-18T13:30:46.003Z,10.90
2023-04-18T13:33:15.387Z,10.18
2023-04-18T13:35:43.842Z,12.02
2023-04-18T13:38:12.332Z,11.57
2023-04-18T13:40:40.743Z,9.77
2023-04-18T13:43:10.861Z,8.43
2023-04-18T13:45:39.481Z,11.32
2023-04-18T13:48:09.459Z,10.23
2023-04-18T13:50:37.999Z,9.10
2023-04-18T13:53:06.530Z,9.50
2023-04-18T13:55:35.920Z,9.35
2023-04-18T13:58:04.925Z,9.65
2023-04-18T14:00:33.619Z,11.52
2023-04-18T14:03:02.509Z,10.20
2023-04-18T14:05:32.838Z,10.10
2023-04-18T14:08:03.957Z,9.82
2023-04-18T14:10:54.399Z,10.07
2023-04-18T14:13:23.294Z,9.77
2023-04-18T14:15:53.714Z,9.18
2023-04-18T14:18:23.541Z,9.77
2023-04-18T14:20:53.385Z,8.88
2023-04-18T14:23:22.929Z,10.45
2023-04-18T14:25:51.632Z,10.45
2023-04-18T14:28:23.585Z,8.73
2023-04-18T14:30:52.776Z,9.10
2023-04-18T14:33:21.580Z,8.30
2023-04-18T14:35:50.158Z,9.15
2023-04-18T14:38:20.517Z,9.45
2023-04-18T14:40:51.964Z,8.30
2023-04-18T14:43:20.451Z,7.45
2023-04-18T14:45:48.846Z,11.15
2023-04-18T14:48:17.577Z,10.35
2023-04-18T14:50:46.028Z,8.02
2023-04-18T14:53:14.512Z,10.23
2023-04-18T14:55:45.889Z,9.60
2023-04-18T14:58:14.766Z,9.35
2023-04-18T15:00:43.138Z,8.65
2023-04-18T15:03:11.882Z,10.02
2023-04-18T15:05:42.874Z,9.27
2023-04-18T15:08:11.795Z,10.75
2023-04-18T15:10:42.212Z,10.25
2023-04-18T15:13:12.229Z,10.38
2023-04-18T15:15:41.014Z,10.57
2023-04-18T15:18:11.125Z,11.48
2023-04-18T15:20:40.284Z,11.35
2023-04-18T15:23:09.890Z,12.18
2023-04-18T15:25:38.534Z,12.23
2023-04-18T15:28:07.895Z,13.60
2023-04-18T15:30:38.119Z,13.18
2023-04-18T15:33:06.669Z,13.20
2023-04-18T15:35:35.726Z,16.88
2023-04-18T15:38:04.284Z,13.40
2023-04-18T15:40:33.510Z,13.52
2023-04-18T15:43:02.002Z,15.30
2023-04-18T15:45:30.625Z,12.73
2023-04-18T15:48:00.479Z,14.02
2023-04-18T15:50:30.309Z,12.73
2023-04-18T15:52:59.944Z,13.70
2023-04-18T15:55:29.249Z,15.38
2023-04-18T16:01:15.861Z,13.48
2023-04-18T16:03:45.929Z,14.38
2023-04-18T16:06:17.814Z,13.13
2023-04-18T16:08:46.569Z,16.15
2023-04-18T16:11:15.766Z,14.80
2023-04-18T16:13:44.441Z,16.00
2023-04-18T16:16:13.116Z,13.43
2023-04-18T16:18:41.659Z,12.48
2023-04-18T16:21:14.176Z,13.10
2023-04-18T16:23:42.991Z,13.85
2023-04-18T16:26:11.876Z,14.77
2023-04-18T16:28:43.178Z,14.82
2023-04-18T16:31:11.794Z,13.65
2023-04-18T16:33:40.417Z,14.60
2023-04-18T16:36:10.185Z,16.25
2023-04-18T16:38:39.940Z,14.10
2023-04-18T16:41:08.345Z,13.40
2023-04-18T16:43:37.936Z,14.05
2023-04-18T16:46:06.832Z,14.70
2023-04-18T16:48:37.744Z,13.13
2023-04-18T16:51:06.708Z,13.75
2023-04-18T16:53:36.027Z,12.02
2023-04-18T16:56:07.893Z,11.63
2023-04-18T16:58:36.393Z,12.00
2023-04-18T17:01:05.229Z,12.27
2023-04-18T17:03:33.955Z,11.82
2023-04-18T17:06:02.569Z,16.15
2023-04-18T17:08:32.831Z,12.48
2023-04-18T17:11:02.298Z,14.85
2023-04-18T17:13:32.585Z,14.60
2023-04-18T17:16:01.288Z,12.80
2023-04-18T17:18:29.879Z,11.25
2023-04-18T17:20:58.371Z,10.68
2023-04-18T17:23:26.861Z,9.95
2023-04-18T17:25:55.749Z,8.48
2023-04-18T17:28:25.109Z,9.90
2023-04-18T17:30:57.238Z,9.40
2023-04-18T17:33:25.731Z,19.40
2023-04-18T17:35:54.157Z,10.32
2023-04-18T17:38:22.494Z,9.65
2023-04-18T17:40:59.580Z,10.05
2023-04-18T17:43:28.007Z,10.18
2023-04-18T17:46:03.597Z,8.98
2023-04-18T17:48:32.173Z,9.70
2023-04-18T17:51:00.566Z,10.35
2023-04-18T17:53:31.586Z,9.23
2023-04-18T17:56:00.788Z,10.32
2023-04-18T17:58:29.320Z,12.05
2023-04-18T18:00:59.098Z,8.90
2023-04-18T18:03:28.001Z,10.85
2023-04-18T18:05:56.456Z,11.27
2023-04-18T18:08:25.617Z,8.90
2023-04-18T18:10:54.133Z,10.48
2023-04-18T18:13:22.565Z,10.65
2023-04-18T18:15:50.910Z,9.15
2023-04-18T18:18:31.326Z,8.13
2023-04-18T18:20:59.953Z,9.25
2023-04-18T18:23:28.361Z,8.68
2023-04-18T18:25:56.748Z,9.02
2023-04-18T18:28:25.367Z,10.05
2023-04-18T18:30:58.919Z,9.85
2023-04-18T18:33:35.240Z,11.00
2023-04-18T18:36:03.911Z,9.77
2023-04-18T18:38:32.766Z,10.52
2023-04-18T18:41:03.602Z,12.55
2023-04-18T18:43:35.589Z,11.38
2023-04-18T18:46:04.181Z,10.70
2023-04-18T18:48:36.839Z,10.98
2023-04-18T18:51:05.497Z,9.93
2023-04-18T18:53:33.917Z,10.00
2023-04-18T18:56:02.649Z,10.40
2023-04-18T18:58:31.167Z,10.82
2023-04-18T19:01:02.217Z,8.75
2023-04-18T19:03:30.941Z,10.45
2023-04-18T19:06:03.711Z,11.13
2023-04-18T19:08:32.212Z,11.57
2023-04-18T19:11:00.759Z,9.90
2023-04-18T19:13:29.218Z,14.60
2023-04-18T19:15:57.669Z,14.93
2023-04-18T19:18:26.450Z,13.68
2023-04-18T19:20:54.813Z,16.67
2023-04-18T19:23:25.264Z,15.95
2023-04-18T19:25:53.619Z,15.95
2023-04-18T19:28:22.774Z,15.57
2023-04-18T19:30:51.246Z,14.93
2023-04-18T19:33:20.493Z,16.50
2023-04-18T19:35:48.888Z,16.65
2023-04-18T19:38:17.378Z,19.10
2023-04-18T19:40:47.510Z,18.05
2023-04-18T19:43:15.973Z,16.83
2023-04-18T19:45:44.373Z,18.70
2023-04-18T19:48:12.838Z,17.52
2023-04-18T19:50:42.164Z,18.45
2023-04-18T19:53:10.544Z,20.05
2023-04-18T19:55:39.078Z,18.33
2023-04-18T19:58:08.778Z,23.75
2023-04-18T20:00:37.771Z,19.35
2023-04-18T20:03:06.339Z,19.60
2023-04-18T20:05:35.068Z,18.38
2023-04-18T20:08:03.513Z,20.33
2023-04-18T20:10:32.977Z,20.42
2023-04-18T20:13:02.132Z,19.67
2023-04-18T20:15:32.153Z,20.63
2023-04-18T20:18:00.642Z,20.73
2023-04-18T20:20:29.341Z,22.15
2023-04-18T20:22:57.880Z,21.45
2023-04-18T20:25:26.457Z,21.33
2023-04-18T20:27:54.929Z,18.98
2023-04-18T20:30:23.526Z,21.85
2023-04-18T20:32:53.394Z,21.50
2023-04-18T20:35:22.095Z,22.63
2023-04-18T20:37:50.736Z,22.55
2023-04-18T20:40:19.181Z,20.20
2023-04-18T20:42:47.628Z,22.63
2023-04-18T20:45:16.073Z,18.73
2023-04-18T20:47:44.580Z,22.58
2023-04-18T20:50:16.126Z,20.45
2023-04-18T20:52:44.586Z,18.77
2023-04-18T20:55:13.363Z,21.50
2023-04-18T20:57:41.737Z,18.60
2023-04-18T21:00:11.037Z,20.05
2023-04-18T21:02:39.590Z,19.10
2023-04-18T21:05:08.828Z,17.45
2023-04-18T21:07:38.634Z,18.45
2023-04-18T21:10:08.140Z,18.23
2023-04-18T21:12:36.585Z,18.80
2023-04-18T21:15:05.722Z,19.65
2023-04-18T21:17:34.182Z,16.77
2023-04-18T21:20:03.509Z,16.17
2023-04-18T21:22:31.868Z,21.15
2023-04-18T21:25:01.703Z,16.38
2023-04-18T21:27:30.088Z,18.17
2023-04-18T21:29:58.430Z,17.23
2023-04-18T21:32:26.831Z,18.50
2023-04-18T21:34:56.242Z,18.50
2023-04-18T21:37:25.454Z,19.67
2023-04-18T21:39:53.832Z,18.10
2023-04-18T21:42:23.568Z,18.08
2023-04-18T21:44:52.019Z,17.33
2023-04-18T21:47:20.540Z,17.23
2023-04-18T21:49:50.586Z,17.20
2023-04-18T21:52:19.026Z,17.13
2023-04-18T21:54:47.679Z,20.27
2023-04-18T21:57:16.104Z,20.42
2023-04-18T21:59:45.797Z,19.65
2023-04-18T22:02:14.299Z,19.42
2023-04-18T22:04:44.021Z,17.88
2023-04-18T22:07:13.382Z,20.52
2023-04-18T22:09:41.768Z,17.38
2023-04-18T22:12:10.100Z,16.27
2023-04-18T22:14:40.225Z,18.10
2023-04-18T22:17:09.960Z,17.55
2023-04-18T22:19:38.355Z,16.50
2023-04-18T22:22:06.739Z,15.02
2023-04-18T22:24:35.132Z,17.92
2023-04-18T22:27:03.959Z,17.90
2023-04-18T22:29:32.411Z,17.80
2023-04-18T22:32:00.801Z,15.85
2023-04-18T22:34:30.818Z,17.55
2023-04-18T22:36:59.662Z,15.02
2023-04-18T22:39:28.055Z,16.23
2023-04-18T22:41:56.496Z,19.17
2023-04-18T22:44:24.899Z,17.63
2023-04-18T22:46:54.493Z,17.20
2023-04-18T22:49:23.146Z,17.98
2023-04-18T22:51:54.199Z,18.60
2023-04-18T22:54:22.646Z,18.45
2023-04-18T22:56:51.295Z,18.15
2023-04-18T22:59:19.822Z,19.13
2023-04-18T23:01:48.349Z,17.15
2023-04-18T23:04:17.070Z,19.65
2023-04-18T23:06:45.695Z,20.38
2023-04-18T23:09:19.427Z,17.42
2023-04-18T23:11:47.893Z,19.90
2023-04-18T23:14:16.707Z,19.70
2023-04-18T23:16:45.328Z,19.65
2023-04-18T23:19:13.736Z,20.00
2023-04-18T23:21:42.210Z,20.17
2023-04-18T23:24:12.194Z,19.75
2023-04-18T23:26:42.127Z,20.38
2023-04-18T23:29:10.558Z,19.65
2023-04-18T23:31:39.015Z,20.02
2023-04-18T23:34:07.425Z,17.63
2023-04-18T23:36:36.837Z,18.52
2023-04-18T23:39:05.400Z,19.10
2023-04-18T23:41:34.161Z,18.90
2023-04-18T23:44:03.995Z,18.70
2023-04-18T23:46:34.283Z,21.38
2023-04-18T23:49:04.422Z,16.42
2023-04-18T23:51:32.792Z,17.90
2023-04-18T23:54:01.335Z,15.88
2023-04-18T23:56:30.240Z,19.38
2023-04-18T23:58:58.907Z,16.13
